Bella Vista, CA (96008)

10:41 PM PDT on August 22, 2014 (GMT -0700)
Bella Vista nr BV school | Change Station
CLOSE
Current Station
Personal Weather Station
Location: Bella Vista, CA
Elevation: 696 ft
Nearby Weather Stations

Elev 696 ft 40.64 °N, 122.23 °W | Updated 1 second ago

Clear
Clear
77.0 °F
Feels Like 78 °F
N
0.0
Wind Variable Wind from SSW
Gusts 0.0 mph

Today
High -- | Low -- °F
--% Chance of Precip.
Yesterday
High -- | Low -- °F
Precip. -- in
6:26 AM 7:56 PM
Waning Crescent, 5% visible
Pressure 29.97 in
Visibility 5.0 miles
Clouds Clear
Heat Index 78 °F
Dew Point 50 °F
Humidity 38%
Rainfall 0.00 in
Snow Depth Not available.
UV 0 out of 12
Pollen 7.80 out of 12
Air Quality Not available.
Flu Activity Not available.
METAR KO86 230535Z AUTO 00000KT 5SM CLR 19/04 A2997 RMK AO1

More Conditions Fewer Conditions

Pressure 29.97 in
Visibility 5.0 miles
Clouds Clear
Heat Index 78 °F
Dew Point 50 °F
Humidity 38%
Rainfall 0.00 in
Snow Depth Not available.
UV 0 out of 12
Pollen 7.80 out of 12
Air Quality Not available.
Flu Activity Not available.
METAR KO86 230535Z AUTO 00000KT 5SM CLR 19/04 A2997 RMK AO1

More Conditions Fewer Conditions

10-Day Weather Forecast

Almanac

Astronomy

Aug. 22, 2014 Rise Set
Actual Time 6:26 AM PDT 7:56 PM PDT
Civil Twilight 5:57 AM PDT 8:25 PM PDT
Nautical Twilight 5:22 AM PDT 8:59 PM PDT
Astronomical Twilight 4:45 AM PDT 9:36 PM PDT
Moon 3:53 AM PDT (8/22) 6:08 PM PDT (8/22)
Length of Visible Light 14h 27m
Length of Day
13h 30m
Tomorrow will be 2m 29s shorter.
Waning Crescent, 5% of the Moon is Illuminated
Aug 23
Waning Crescent
Aug 25
New
Sep 2
First Quarter
Sep 8
Full
Sep 15
Last Quarter

Yesterday's Extremes

State Highs State Lows

Community

WunderPhotos

Upload Photos

1,746,372 photos uploaded!

WunderBlogs® & News

By Dr. Jeff Masters
Director of Meteorology, Weather Underground
By Kari Strenfel
Meteorologist, Weather Underground
By Christopher C. Burt
Weather Historian, Weather Underground
August 23, 2014
August 23, 2014
August 22, 2014

Nearby

Snow Depth

Station Depth Elevation
Adin Mountain 0 in 6200 ft
Cedar Pass 0 in 7100 ft
Fallen Leaf 0 in 6300 ft
Echo Peak 1 in 7800 ft
Hagan's Meadow 0 in 8000 ft

Earthquake Activity

City Distance Mag. Time & Date
No recent earthquake activity has been reported nearby.
Minimum magnitude displayed is 2.5.

Coastal Water Temperatures

Place Temperature
No Stations Reporting

Nearby Weather Stations